Time;durP1;ratioP1;P1;durP2;ratioP2;P2;SDS_P1;SDS_P2;PMS_P1;PMS_P2;Temp;Humidity;BMP_temperature;BMP_pressure;BME280_temperature;BME280_humidity;BME280_pressure;Samples;Min_cycle;Max_cycle;Signal;HPM_P1;HPM_P2
2024/01/08 00:00:41;;;;;;;18.17;12.95;;;;;;;;;;2059390;28;20454;-75
2024/01/08 00:02:02;;;;;;;19.77;14.02;;;;;;;;;;2066766;28;21375;-77
2024/01/08 00:03:23;;;;;;;17.10;13.50;;;;;;;;;;2069360;28;20057;-74
2024/01/08 00:04:44;;;;;;;17.20;12.02;;;;;;;;;;2063711;28;20038;-74
2024/01/08 00:06:05;;;;;;;16.40;13.00;;;;;;;;;;2061926;28;20030;-75
2024/01/08 00:07:26;;;;;;;14.18;12.63;;;;;;;;;;2065935;28;20043;-75
2024/01/08 00:08:47;;;;;;;15.43;11.93;;;;;;;;;;2064780;28;20047;-75
2024/01/08 00:10:08;;;;;;;18.20;13.05;;;;;;;;;;2067776;28;20085;-75
2024/01/08 00:11:29;;;;;;;14.77;13.15;;;;;;;;;;2068958;28;20026;-74
2024/01/08 00:12:49;;;;;;;14.68;12.43;;;;;;;;;;2071035;28;20046;-76
2024/01/08 00:14:10;;;;;;;16.98;13.55;;;;;;;;;;2068915;28;20030;-75
2024/01/08 00:15:31;;;;;;;18.42;13.77;;;;;;;;;;2063041;28;20026;-75
2024/01/08 00:16:52;;;;;;;19.00;14.07;;;;;;;;;;2066477;28;20030;-75
2024/01/08 00:18:13;;;;;;;20.05;13.88;;;;;;;;;;2070636;28;20190;-76
2024/01/08 00:19:34;;;;;;;17.05;13.27;;;;;;;;;;2069610;28;20041;-75
2024/01/08 00:20:56;;;;;;;19.42;14.80;;;;;;;;;;2068593;28;20038;-75
2024/01/08 00:22:16;;;;;;;18.63;15.00;;;;;;;;;;2062590;28;20482;-75
2024/01/08 00:23:37;;;;;;;19.83;15.20;;;;;;;;;;2060016;28;20038;-75
2024/01/08 00:24:58;;;;;;;20.60;15.32;;;;;;;;;;2059629;28;20088;-75
2024/01/08 00:26:19;;;;;;;23.92;14.48;;;;;;;;;;2069086;28;20037;-75
2024/01/08 00:27:40;;;;;;;19.20;14.15;;;;;;;;;;2060881;28;20108;-75
2024/01/08 00:29:01;;;;;;;23.50;16.20;;;;;;;;;;2070387;28;20034;-75
2024/01/08 00:30:22;;;;;;;22.15;16.63;;;;;;;;;;2071344;28;20085;-75
2024/01/08 00:31:43;;;;;;;32.90;19.30;;;;;;;;;;2071962;28;20057;-75
2024/01/08 00:33:04;;;;;;;25.83;18.60;;;;;;;;;;2071456;28;20030;-75
2024/01/08 00:34:27;;;;;;;34.55;20.17;;;;;;;;;;2064388;28;20683;-74
2024/01/08 00:35:48;;;;;;;35.35;20.10;;;;;;;;;;2070790;28;20512;-75
2024/01/08 00:37:08;;;;;;;31.92;21.52;;;;;;;;;;2071110;28;20088;-75
2024/01/08 00:38:29;;;;;;;29.67;18.77;;;;;;;;;;2063512;28;20110;-74
2024/01/08 00:39:50;;;;;;;29.92;17.52;;;;;;;;;;2068131;28;20038;-75
2024/01/08 00:41:11;;;;;;;36.65;19.45;;;;;;;;;;2068434;28;20026;-76
2024/01/08 00:42:32;;;;;;;28.98;18.05;;;;;;;;;;2070001;28;20026;-75
2024/01/08 00:43:53;;;;;;;21.60;15.07;;;;;;;;;;2073394;28;20428;-75
2024/01/08 00:45:14;;;;;;;25.70;16.15;;;;;;;;;;2080523;28;20040;-75
2024/01/08 00:46:35;;;;;;;20.67;14.93;;;;;;;;;;2055757;28;20030;-74
2024/01/08 00:47:56;;;;;;;23.48;15.85;;;;;;;;;;2052999;28;20503;-74
2024/01/08 00:49:16;;;;;;;20.45;15.38;;;;;;;;;;2061837;28;20038;-75
2024/01/08 00:50:37;;;;;;;24.73;16.35;;;;;;;;;;2066168;28;20037;-75
2024/01/08 00:51:58;;;;;;;21.75;14.80;;;;;;;;;;2062908;28;20045;-74
2024/01/08 00:53:19;;;;;;;19.70;14.68;;;;;;;;;;2066413;28;20033;-75
2024/01/08 00:54:40;;;;;;;22.63;15.20;;;;;;;;;;2072661;28;20038;-75
2024/01/08 00:56:01;;;;;;;22.00;14.55;;;;;;;;;;2071181;28;20033;-75
2024/01/08 00:57:22;;;;;;;18.92;14.32;;;;;;;;;;2072593;28;20042;-75
2024/01/08 00:58:43;;;;;;;27.20;18.67;;;;;;;;;;2065346;28;20034;-75
2024/01/08 01:00:04;;;;;;;27.88;18.02;;;;;;;;;;2059050;28;20057;-74
2024/01/08 01:01:26;;;;;;;30.90;20.60;;;;;;;;;;2068969;28;20144;-76
2024/01/08 01:02:47;;;;;;;24.25;16.75;;;;;;;;;;2064785;28;20058;-75
2024/01/08 01:04:08;;;;;;;28.77;17.95;;;;;;;;;;2064346;28;20030;-75
2024/01/08 01:05:28;;;;;;;31.25;19.10;;;;;;;;;;2062281;28;20087;-75
2024/01/08 01:06:49;;;;;;;29.02;18.30;;;;;;;;;;2067615;28;20231;-75
2024/01/08 01:08:10;;;;;;;30.20;18.30;;;;;;;;;;2069755;28;20041;-75
2024/01/08 01:09:31;;;;;;;29.70;18.20;;;;;;;;;;2067294;28;20084;-75
2024/01/08 01:10:52;;;;;;;27.55;18.73;;;;;;;;;;2069434;28;20478;-74
2024/01/08 01:12:13;;;;;;;21.90;16.27;;;;;;;;;;2070449;28;20038;-75
2024/01/08 01:13:34;;;;;;;25.10;17.65;;;;;;;;;;2061246;28;20747;-74
2024/01/08 01:14:55;;;;;;;22.42;17.08;;;;;;;;;;2058439;28;20042;-74
2024/01/08 01:16:16;;;;;;;23.13;16.10;;;;;;;;;;2066452;28;20092;-75
2024/01/08 01:17:37;;;;;;;21.95;15.85;;;;;;;;;;2069219;28;20343;-74
2024/01/08 01:18:58;;;;;;;21.75;14.85;;;;;;;;;;2069507;28;20080;-75
2024/01/08 01:20:19;;;;;;;20.63;15.13;;;;;;;;;;2065697;28;20497;-75
2024/01/08 01:21:40;;;;;;;26.63;15.63;;;;;;;;;;2069853;28;20046;-75
2024/01/08 01:23:01;;;;;;;20.95;14.65;;;;;;;;;;2068102;28;20038;-74
2024/01/08 01:24:21;;;;;;;21.83;14.10;;;;;;;;;;2062490;28;20100;-74
2024/01/08 01:25:42;;;;;;;20.65;15.27;;;;;;;;;;2066256;28;20030;-76
2024/01/08 01:27:03;;;;;;;21.48;14.98;;;;;;;;;;2071708;28;20081;-75
2024/01/08 01:28:24;;;;;;;19.70;14.35;;;;;;;;;;2061881;28;20046;-75
2024/01/08 01:29:45;;;;;;;20.00;15.02;;;;;;;;;;2066075;28;20517;-75
2024/01/08 01:31:06;;;;;;;19.45;14.65;;;;;;;;;;2061365;28;20352;-74
2024/01/08 01:32:27;;;;;;;19.65;14.00;;;;;;;;;;2058647;28;20034;-75
2024/01/08 01:33:48;;;;;;;19.92;14.88;;;;;;;;;;2066928;28;20096;-76
2024/01/08 01:35:09;;;;;;;17.48;14.25;;;;;;;;;;2071540;28;20030;-74
2024/01/08 01:36:35;;;;;;;19.98;14.98;;;;;;;;;;2064490;28;20043;-75
2024/01/08 01:37:58;;;;;;;17.17;13.10;;;;;;;;;;2068116;28;20104;-76
2024/01/08 01:39:19;;;;;;;20.02;13.68;;;;;;;;;;2068387;28;20633;-75
2024/01/08 01:40:39;;;;;;;18.20;13.85;;;;;;;;;;2069555;28;20030;-75
2024/01/08 01:42:00;;;;;;;15.00;12.95;;;;;;;;;;2070231;28;20088;-75
2024/01/08 01:43:23;;;;;;;21.42;15.65;;;;;;;;;;2069723;28;20516;-75
2024/01/08 01:44:44;;;;;;;22.73;14.70;;;;;;;;;;2063665;28;20370;-74
2024/01/08 01:46:07;;;;;;;16.08;12.57;;;;;;;;;;2070232;28;20025;-73
2024/01/08 01:47:28;;;;;;;20.17;14.98;;;;;;;;;;2075056;28;20460;-74
2024/01/08 01:48:50;;;;;;;22.17;14.80;;;;;;;;;;2070438;28;20038;-74
2024/01/08 01:50:11;;;;;;;18.63;14.52;;;;;;;;;;2062581;28;20048;-73
2024/01/08 01:51:32;;;;;;;18.25;13.88;;;;;;;;;;2067652;28;20038;-74
2024/01/08 01:52:53;;;;;;;19.92;14.57;;;;;;;;;;2068548;28;20066;-74
2024/01/08 01:54:15;;;;;;;15.82;13.55;;;;;;;;;;2062385;28;20442;-74
2024/01/08 01:55:36;;;;;;;18.30;16.33;;;;;;;;;;2056721;28;20022;-73
2024/01/08 01:56:59;;;;;;;19.27;13.65;;;;;;;;;;2066932;28;20071;-74
2024/01/08 01:58:20;;;;;;;16.80;12.80;;;;;;;;;;2069194;28;20034;-74
2024/01/08 01:59:41;;;;;;;15.63;13.80;;;;;;;;;;2062865;28;20233;-74
2024/01/08 02:01:02;;;;;;;17.67;13.30;;;;;;;;;;2066538;28;20034;-74
2024/01/08 02:02:27;;;;;;;17.25;13.93;;;;;;;;;;2071362;28;20778;-74
2024/01/08 02:03:48;;;;;;;20.65;16.25;;;;;;;;;;2061890;28;20457;-75
2024/01/08 02:05:11;;;;;;;18.85;14.75;;;;;;;;;;2067217;28;20616;-74
2024/01/08 02:06:34;;;;;;;15.95;11.82;;;;;;;;;;2061950;28;20034;-74
2024/01/08 02:07:56;;;;;;;17.85;13.88;;;;;;;;;;2064997;28;20030;-74
2024/01/08 02:09:18;;;;;;;18.13;13.98;;;;;;;;;;2068555;28;20034;-74
2024/01/08 02:10:40;;;;;;;15.07;12.40;;;;;;;;;;2069564;28;20402;-74
2024/01/08 02:12:01;;;;;;;16.77;13.45;;;;;;;;;;2069362;28;20056;-75
2024/01/08 02:13:22;;;;;;;14.73;11.90;;;;;;;;;;2066053;28;20050;-74
2024/01/08 02:14:46;;;;;;;17.20;12.60;;;;;;;;;;2067781;28;20506;-74
2024/01/08 02:16:07;;;;;;;15.38;12.13;;;;;;;;;;2065606;28;20502;-73
2024/01/08 02:17:28;;;;;;;17.83;12.70;;;;;;;;;;2067813;28;20038;-74
2024/01/08 02:18:49;;;;;;;15.27;12.85;;;;;;;;;;2069297;28;20053;-73
2024/01/08 02:20:10;;;;;;;16.98;12.82;;;;;;;;;;2068066;28;20033;-73
2024/01/08 02:21:31;;;;;;;16.30;13.95;;;;;;;;;;2062022;28;20062;-73
2024/01/08 02:22:52;;;;;;;16.23;12.43;;;;;;;;;;2066105;28;20026;-74
2024/01/08 02:24:13;;;;;;;17.17;12.50;;;;;;;;;;2070473;28;20022;-74
2024/01/08 02:25:34;;;;;;;15.10;11.52;;;;;;;;;;2070124;28;20030;-74
2024/01/08 02:26:57;;;;;;;13.80;11.80;;;;;;;;;;2069920;28;20026;-74
2024/01/08 02:28:17;;;;;;;15.52;11.38;;;;;;;;;;2063414;28;20034;-74
2024/01/08 02:29:38;;;;;;;17.08;13.05;;;;;;;;;;2069085;28;20034;-74
2024/01/08 02:30:59;;;;;;;20.02;12.65;;;;;;;;;;2060690;28;20486;-74
2024/01/08 02:32:20;;;;;;;17.88;11.60;;;;;;;;;;2059441;28;20030;-75
2024/01/08 02:33:41;;;;;;;16.95;12.32;;;;;;;;;;2069040;28;20038;-74
2024/01/08 02:35:02;;;;;;;14.77;11.95;;;;;;;;;;2060606;28;20027;-74
2024/01/08 02:36:23;;;;;;;16.02;11.45;;;;;;;;;;2060792;28;20026;-74
2024/01/08 02:37:44;;;;;;;20.45;18.45;;;;;;;;;;2071738;28;20259;-74
2024/01/08 02:39:05;;;;;;;19.13;13.27;;;;;;;;;;2073077;28;20030;-73
2024/01/08 02:40:26;;;;;;;18.48;13.45;;;;;;;;;;2073343;28;20397;-74
2024/01/08 02:41:47;;;;;;;19.13;13.60;;;;;;;;;;2065407;28;20030;-73
2024/01/08 02:43:07;;;;;;;16.20;11.40;;;;;;;;;;2066067;28;20094;-73
2024/01/08 02:44:28;;;;;;;17.45;12.98;;;;;;;;;;2065814;28;20030;-73
2024/01/08 02:45:49;;;;;;;16.17;11.85;;;;;;;;;;2069316;28;20025;-74
2024/01/08 02:47:10;;;;;;;16.52;13.10;;;;;;;;;;2066584;28;20042;-74
2024/01/08 02:48:31;;;;;;;18.38;13.05;;;;;;;;;;2064739;28;20046;-73
2024/01/08 02:49:52;;;;;;;15.65;11.93;;;;;;;;;;2069923;28;20592;-74
2024/01/08 02:51:16;;;;;;;18.80;12.57;;;;;;;;;;2064900;28;20034;-73
2024/01/08 02:52:36;;;;;;;18.10;12.65;;;;;;;;;;2070485;28;20504;-74
2024/01/08 02:53:57;;;;;;;15.68;13.45;;;;;;;;;;2072884;28;20045;-73
2024/01/08 02:55:19;;;;;;;20.25;14.43;;;;;;;;;;2071773;28;20037;-73
2024/01/08 02:56:40;;;;;;;16.60;13.02;;;;;;;;;;2064660;28;20045;-73
2024/01/08 02:58:04;;;;;;;18.40;14.02;;;;;;;;;;2058989;28;20075;-73
2024/01/08 02:59:25;;;;;;;21.13;12.98;;;;;;;;;;2069951;28;20033;-73
2024/01/08 03:00:46;;;;;;;19.98;13.70;;;;;;;;;;2069350;28;20026;-74
2024/01/08 03:02:07;;;;;;;18.15;12.95;;;;;;;;;;2059300;28;20466;-73
2024/01/08 03:03:28;;;;;;;20.05;13.82;;;;;;;;;;2066457;28;20038;-73
2024/01/08 03:04:48;;;;;;;16.65;12.60;;;;;;;;;;2070060;28;20038;-73
2024/01/08 03:06:09;;;;;;;18.45;13.25;;;;;;;;;;2072411;28;20034;-76
2024/01/08 03:07:30;;;;;;;18.67;14.27;;;;;;;;;;2068944;28;20086;-76
2024/01/08 03:08:51;;;;;;;18.83;13.55;;;;;;;;;;2071806;28;20121;-74
2024/01/08 03:10:12;;;;;;;17.67;12.35;;;;;;;;;;2070146;28;20037;-74
2024/01/08 03:11:33;;;;;;;20.05;14.02;;;;;;;;;;2071017;28;20519;-73
2024/01/08 03:12:54;;;;;;;18.40;13.48;;;;;;;;;;2062792;28;20038;-74
2024/01/08 03:14:15;;;;;;;17.60;12.18;;;;;;;;;;2060770;28;20038;-73
2024/01/08 03:15:36;;;;;;;20.85;13.40;;;;;;;;;;2062469;28;20035;-74
2024/01/08 03:16:57;;;;;;;15.77;13.38;;;;;;;;;;2064885;28;20031;-74
2024/01/08 03:18:18;;;;;;;16.52;13.27;;;;;;;;;;2068370;28;20081;-74
2024/01/08 03:19:39;;;;;;;18.23;13.95;;;;;;;;;;2070742;28;20031;-74
2024/01/08 03:20:59;;;;;;;17.67;13.45;;;;;;;;;;2060771;28;20100;-73
2024/01/08 03:22:20;;;;;;;18.17;12.45;;;;;;;;;;2069245;28;20030;-75
2024/01/08 03:23:41;;;;;;;18.58;12.80;;;;;;;;;;2062846;28;20034;-74
2024/01/08 03:25:02;;;;;;;20.02;12.80;;;;;;;;;;2067322;28;20489;-73
2024/01/08 03:26:23;;;;;;;15.40;13.27;;;;;;;;;;2063637;28;20045;-73
2024/01/08 03:27:44;;;;;;;21.13;14.50;;;;;;;;;;2067148;28;20494;-73
2024/01/08 03:29:05;;;;;;;20.42;13.02;;;;;;;;;;2062874;28;20038;-74
2024/01/08 03:30:26;;;;;;;17.27;13.00;;;;;;;;;;2066663;28;20742;-75
2024/01/08 03:31:47;;;;;;;19.98;14.00;;;;;;;;;;2070493;28;20030;-74
2024/01/08 03:33:08;;;;;;;17.13;13.52;;;;;;;;;;2070541;28;20037;-73
2024/01/08 03:34:29;;;;;;;18.48;13.48;;;;;;;;;;2062306;28;20050;-74
2024/01/08 03:35:50;;;;;;;17.55;12.35;;;;;;;;;;2059463;28;20042;-74
2024/01/08 03:37:11;;;;;;;20.60;13.05;;;;;;;;;;2068433;28;20065;-74
2024/01/08 03:38:32;;;;;;;22.38;14.57;;;;;;;;;;2067222;28;20281;-74
2024/01/08 03:39:53;;;;;;;19.60;14.18;;;;;;;;;;2070857;28;20030;-74
2024/01/08 03:41:15;;;;;;;18.00;13.35;;;;;;;;;;2068097;28;20413;-75
2024/01/08 03:42:36;;;;;;;18.73;14.48;;;;;;;;;;2069764;28;20378;-74
2024/01/08 03:43:57;;;;;;;21.75;14.60;;;;;;;;;;2063304;28;20026;-74
2024/01/08 03:45:17;;;;;;;18.33;12.90;;;;;;;;;;2061651;28;20034;-75
2024/01/08 03:46:39;;;;;;;19.20;12.27;;;;;;;;;;2061768;28;20425;-74
2024/01/08 03:47:59;;;;;;;15.70;12.52;;;;;;;;;;2060914;28;20097;-74
2024/01/08 03:49:20;;;;;;;19.92;13.98;;;;;;;;;;2068538;28;20041;-74
2024/01/08 03:50:41;;;;;;;18.85;14.15;;;;;;;;;;2066870;28;20521;-74
2024/01/08 03:52:02;;;;;;;15.98;12.27;;;;;;;;;;2069600;28;20057;-74
2024/01/08 03:53:23;;;;;;;19.00;13.30;;;;;;;;;;2068233;28;20398;-74
2024/01/08 03:54:44;;;;;;;22.67;14.75;;;;;;;;;;2068037;28;20076;-74
2024/01/08 03:56:05;;;;;;;17.23;13.00;;;;;;;;;;2070205;28;20026;-74
2024/01/08 03:57:26;;;;;;;18.75;13.43;;;;;;;;;;2063175;28;20549;-74
2024/01/08 03:58:47;;;;;;;17.33;13.80;;;;;;;;;;2064837;28;20049;-74
2024/01/08 04:00:08;;;;;;;23.60;15.02;;;;;;;;;;2068526;28;20096;-74
2024/01/08 04:01:29;;;;;;;20.35;13.55;;;;;;;;;;2070378;28;20074;-74
2024/01/08 04:02:50;;;;;;;17.88;12.75;;;;;;;;;;2070532;28;20105;-75
2024/01/08 04:04:11;;;;;;;20.08;14.18;;;;;;;;;;2068714;28;20065;-74
2024/01/08 04:05:32;;;;;;;19.52;13.50;;;;;;;;;;2069080;28;20030;-75
2024/01/08 04:06:53;;;;;;;22.38;14.27;;;;;;;;;;2068195;28;20092;-74
2024/01/08 04:08:14;;;;;;;20.08;13.65;;;;;;;;;;2061839;28;20046;-74
2024/01/08 04:09:35;;;;;;;18.00;13.80;;;;;;;;;;2067591;28;20056;-74
2024/01/08 04:10:56;;;;;;;19.75;14.13;;;;;;;;;;2069799;28;20366;-74
2024/01/08 04:12:17;;;;;;;17.08;12.93;;;;;;;;;;2061814;28;20038;-74
2024/01/08 04:13:38;;;;;;;15.77;11.93;;;;;;;;;;2069875;28;20034;-74
2024/01/08 04:14:59;;;;;;;14.82;12.40;;;;;;;;;;2070625;28;20477;-74
2024/01/08 04:16:20;;;;;;;16.13;12.82;;;;;;;;;;2072719;28;20180;-74
2024/01/08 04:17:41;;;;;;;19.15;12.52;;;;;;;;;;2067394;28;20668;-74
2024/01/08 04:19:02;;;;;;;15.70;12.90;;;;;;;;;;2065479;28;20046;-74
2024/01/08 04:20:23;;;;;;;17.65;13.75;;;;;;;;;;2063075;28;20030;-74
2024/01/08 04:21:44;;;;;;;17.15;12.48;;;;;;;;;;2064824;28;20430;-74
2024/01/08 04:23:05;;;;;;;17.75;15.88;;;;;;;;;;2068353;28;20103;-74
2024/01/08 04:24:25;;;;;;;18.60;13.25;;;;;;;;;;2062009;28;20027;-74
2024/01/08 04:25:46;;;;;;;14.38;12.15;;;;;;;;;;2065667;28;20100;-74
2024/01/08 04:27:07;;;;;;;16.83;12.25;;;;;;;;;;2068654;28;20580;-74
2024/01/08 04:28:28;;;;;;;21.35;12.32;;;;;;;;;;2067746;28;20473;-75
2024/01/08 04:29:49;;;;;;;19.38;14.13;;;;;;;;;;2068704;28;20141;-74
2024/01/08 04:31:17;;;;;;;16.77;11.82;;;;;;;;;;2062527;28;20057;-73
2024/01/08 04:32:37;;;;;;;15.77;12.10;;;;;;;;;;2068678;28;20560;-73
2024/01/08 04:33:59;;;;;;;19.75;13.02;;;;;;;;;;2056398;28;20043;-74
2024/01/08 04:35:20;;;;;;;15.13;12.40;;;;;;;;;;2071026;28;20459;-74
2024/01/08 04:36:44;;;;;;;15.07;12.82;;;;;;;;;;2072538;28;20034;-75
2024/01/08 04:38:04;;;;;;;15.27;12.90;;;;;;;;;;2070166;28;20049;-74
2024/01/08 04:39:25;;;;;;;15.32;12.43;;;;;;;;;;2071784;28;20470;-73
2024/01/08 04:40:46;;;;;;;19.52;13.60;;;;;;;;;;2070647;28;20030;-74
2024/01/08 04:42:07;;;;;;;18.35;12.77;;;;;;;;;;2065494;28;20027;-74
2024/01/08 04:43:28;;;;;;;18.52;12.20;;;;;;;;;;2070689;28;20493;-74
2024/01/08 04:44:49;;;;;;;18.95;12.57;;;;;;;;;;2073288;28;20133;-74
2024/01/08 04:46:10;;;;;;;18.90;12.80;;;;;;;;;;2072058;28;20029;-74
2024/01/08 04:47:31;;;;;;;16.30;12.38;;;;;;;;;;2063317;28;20042;-75
2024/01/08 04:48:51;;;;;;;18.33;13.52;;;;;;;;;;2071039;28;20050;-74
2024/01/08 04:50:12;;;;;;;20.38;13.25;;;;;;;;;;2068942;28;20038;-74
2024/01/08 04:51:33;;;;;;;19.00;12.70;;;;;;;;;;2071350;28;20076;-75
2024/01/08 04:52:54;;;;;;;18.10;12.90;;;;;;;;;;2070782;28;20038;-74
2024/01/08 04:54:16;;;;;;;18.95;14.20;;;;;;;;;;2071513;28;20026;-75
2024/01/08 04:55:37;;;;;;;23.03;20.90;;;;;;;;;;2055661;28;20030;-75
2024/01/08 04:56:57;;;;;;;17.30;11.15;;;;;;;;;;2058767;28;20440;-76
2024/01/08 04:58:18;;;;;;;20.23;13.05;;;;;;;;;;2066104;28;20038;-77
2024/01/08 04:59:42;;;;;;;20.15;14.00;;;;;;;;;;2070572;28;20037;-74
2024/01/08 05:01:03;;;;;;;14.77;13.15;;;;;;;;;;2067459;28;20026;-76
2024/01/08 05:02:24;;;;;;;14.40;12.57;;;;;;;;;;2069895;28;20029;-75
2024/01/08 05:03:45;;;;;;;19.83;13.02;;;;;;;;;;2068235;28;20092;-75
2024/01/08 05:05:09;;;;;;;18.70;13.38;;;;;;;;;;2062150;28;20498;-75
2024/01/08 05:06:30;;;;;;;16.60;13.35;;;;;;;;;;2066691;28;20424;-75
2024/01/08 05:07:50;;;;;;;17.63;14.05;;;;;;;;;;2062461;28;20098;-75
2024/01/08 05:09:11;;;;;;;18.95;13.25;;;;;;;;;;2067083;28;20038;-74
2024/01/08 05:10:32;;;;;;;17.17;15.00;;;;;;;;;;2069898;28;20080;-75
2024/01/08 05:11:53;;;;;;;17.40;14.30;;;;;;;;;;2068328;28;20053;-75
2024/01/08 05:13:14;;;;;;;20.38;15.23;;;;;;;;;;2068771;28;20623;-75
2024/01/08 05:14:35;;;;;;;20.27;14.05;;;;;;;;;;2070412;28;20072;-75
2024/01/08 05:15:56;;;;;;;27.42;15.48;;;;;;;;;;2067057;28;20038;-76
2024/01/08 05:17:17;;;;;;;17.33;13.85;;;;;;;;;;2063128;28;20374;-75
2024/01/08 05:18:38;;;;;;;21.40;14.63;;;;;;;;;;2070288;28;20029;-74
2024/01/08 05:19:59;;;;;;;18.38;12.98;;;;;;;;;;2069050;28;20045;-75
2024/01/08 05:21:19;;;;;;;16.77;13.70;;;;;;;;;;2063847;28;20033;-76
2024/01/08 05:22:40;;;;;;;17.40;12.57;;;;;;;;;;2068269;28;20038;-75
2024/01/08 05:24:01;;;;;;;19.67;14.25;;;;;;;;;;2070382;28;20131;-75
2024/01/08 05:25:22;;;;;;;16.17;13.70;;;;;;;;;;2069301;28;20030;-74
2024/01/08 05:26:43;;;;;;;15.75;12.80;;;;;;;;;;2062853;28;20541;-74
2024/01/08 05:28:05;;;;;;;18.63;12.88;;;;;;;;;;2064236;28;20037;-74
2024/01/08 05:29:26;;;;;;;18.40;14.45;;;;;;;;;;2061596;28;20050;-72
2024/01/08 05:30:47;;;;;;;21.85;14.45;;;;;;;;;;2066831;28;20501;-74
2024/01/08 05:32:08;;;;;;;17.55;12.93;;;;;;;;;;2068654;28;20042;-74
2024/01/08 05:33:28;;;;;;;17.35;13.30;;;;;;;;;;2068602;28;20061;-75
2024/01/08 05:34:49;;;;;;;21.55;14.07;;;;;;;;;;2069795;28;20030;-74
2024/01/08 05:36:10;;;;;;;21.00;14.73;;;;;;;;;;2068250;28;20081;-74
2024/01/08 05:37:31;;;;;;;18.73;13.55;;;;;;;;;;2068494;28;20325;-74
2024/01/08 05:38:52;;;;;;;20.48;15.50;;;;;;;;;;2067736;28;20058;-76
2024/01/08 05:40:13;;;;;;;16.23;13.05;;;;;;;;;;2068080;28;20073;-75
2024/01/08 05:41:38;;;;;;;19.88;14.20;;;;;;;;;;2060414;28;20023;-74
2024/01/08 05:42:59;;;;;;;20.50;14.85;;;;;;;;;;2066625;28;20061;-76
2024/01/08 05:44:20;;;;;;;25.85;14.77;;;;;;;;;;2068982;28;20077;-75
2024/01/08 05:45:41;;;;;;;19.17;14.95;;;;;;;;;;2066281;28;20092;-72
2024/01/08 05:47:02;;;;;;;17.65;14.05;;;;;;;;;;2069465;28;20048;-72
2024/01/08 05:48:23;;;;;;;15.85;12.27;;;;;;;;;;2071633;28;20030;-72
2024/01/08 05:49:44;;;;;;;17.35;12.88;;;;;;;;;;2070063;28;20038;-72
2024/01/08 05:51:05;;;;;;;17.98;13.13;;;;;;;;;;2071503;28;20092;-72
2024/01/08 05:52:26;;;;;;;25.40;14.18;;;;;;;;;;2069962;28;20096;-72
2024/01/08 05:53:47;;;;;;;16.50;14.05;;;;;;;;;;2061163;28;20300;-72
2024/01/08 05:55:08;;;;;;;19.85;14.38;;;;;;;;;;2067637;28;20030;-73
2024/01/08 05:56:31;;;;;;;18.60;14.18;;;;;;;;;;2067701;28;21982;-73
2024/01/08 05:57:52;;;;;;;21.30;15.68;;;;;;;;;;2065981;28;20049;-74
2024/01/08 05:59:13;;;;;;;18.27;14.35;;;;;;;;;;2065230;28;20054;-73
2024/01/08 06:00:34;;;;;;;17.77;15.73;;;;;;;;;;2071568;28;20025;-73
2024/01/08 06:01:55;;;;;;;17.50;13.32;;;;;;;;;;2070469;28;20026;-74
2024/01/08 06:03:16;;;;;;;21.00;14.60;;;;;;;;;;2062802;28;20084;-75
2024/01/08 06:04:38;;;;;;;16.98;13.45;;;;;;;;;;2066697;28;20419;-75
2024/01/08 06:05:59;;;;;;;19.27;14.35;;;;;;;;;;2070796;28;20029;-74
2024/01/08 06:07:20;;;;;;;16.60;14.25;;;;;;;;;;2061278;28;20027;-74
2024/01/08 06:08:41;;;;;;;18.27;14.27;;;;;;;;;;2063420;28;20379;-74
2024/01/08 06:10:02;;;;;;;23.10;15.07;;;;;;;;;;2067640;28;20060;-76
2024/01/08 06:11:24;;;;;;;22.05;14.65;;;;;;;;;;2063054;28;20046;-74
2024/01/08 06:12:45;;;;;;;18.30;14.15;;;;;;;;;;2060213;28;20030;-73
2024/01/08 06:14:06;;;;;;;17.05;13.45;;;;;;;;;;2066328;28;20029;-75
2024/01/08 06:15:27;;;;;;;17.65;14.07;;;;;;;;;;2070065;28;20068;-75
2024/01/08 06:16:48;;;;;;;18.67;14.23;;;;;;;;;;2061781;28;20038;-74
2024/01/08 06:18:09;;;;;;;17.10;13.95;;;;;;;;;;2070561;28;20235;-73
2024/01/08 06:19:30;;;;;;;17.27;13.70;;;;;;;;;;2072493;28;20038;-74
2024/01/08 06:20:52;;;;;;;17.30;14.55;;;;;;;;;;2063494;28;20027;-74
2024/01/08 06:22:12;;;;;;;21.65;14.73;;;;;;;;;;2070261;28;20034;-74
2024/01/08 06:23:33;;;;;;;21.17;14.85;;;;;;;;;;2070942;28;20030;-74
2024/01/08 06:24:54;;;;;;;23.52;14.98;;;;;;;;;;2068059;28;20034;-74
2024/01/08 06:26:15;;;;;;;19.45;14.38;;;;;;;;;;2069397;28;20445;-75
2024/01/08 06:27:36;;;;;;;20.35;13.10;;;;;;;;;;2071479;28;20037;-73
2024/01/08 06:28:57;;;;;;;20.20;14.93;;;;;;;;;;2070854;28;20046;-74
2024/01/08 06:30:18;;;;;;;16.80;13.70;;;;;;;;;;2071141;28;20394;-74
2024/01/08 06:31:39;;;;;;;20.80;13.85;;;;;;;;;;2071921;28;20045;-76
2024/01/08 06:33:00;;;;;;;18.80;14.27;;;;;;;;;;2071418;28;20085;-77
2024/01/08 06:34:21;;;;;;;21.25;15.40;;;;;;;;;;2063902;28;20924;-76
2024/01/08 06:35:42;;;;;;;17.85;13.95;;;;;;;;;;2068617;28;20078;-76
2024/01/08 06:37:03;;;;;;;20.80;15.68;;;;;;;;;;2071484;28;20026;-76
2024/01/08 06:38:24;;;;;;;22.75;16.15;;;;;;;;;;2061521;28;20030;-76
2024/01/08 06:39:45;;;;;;;19.75;13.95;;;;;;;;;;2060994;28;20030;-76
2024/01/08 06:41:06;;;;;;;23.35;15.50;;;;;;;;;;2063614;28;20026;-77
2024/01/08 06:42:27;;;;;;;22.58;15.18;;;;;;;;;;2068992;28;20075;-76
2024/01/08 06:43:47;;;;;;;20.17;16.13;;;;;;;;;;2055681;28;20038;-76
2024/01/08 06:45:08;;;;;;;21.77;15.48;;;;;;;;;;2069992;28;20414;-76
2024/01/08 06:46:29;;;;;;;22.15;15.95;;;;;;;;;;2072018;28;20034;-77
2024/01/08 06:47:50;;;;;;;20.75;14.57;;;;;;;;;;2070372;28;20025;-76
2024/01/08 06:49:11;;;;;;;20.92;15.07;;;;;;;;;;2060931;28;20034;-75
2024/01/08 06:50:32;;;;;;;24.25;15.80;;;;;;;;;;2060959;28;20042;-76
2024/01/08 06:51:53;;;;;;;18.13;15.38;;;;;;;;;;2069403;28;20037;-77
2024/01/08 06:53:14;;;;;;;24.77;16.80;;;;;;;;;;2063935;28;20034;-76
2024/01/08 06:54:35;;;;;;;22.73;16.10;;;;;;;;;;2068543;28;20038;-77
2024/01/08 06:55:55;;;;;;;15.45;13.43;;;;;;;;;;2071548;28;20026;-76
2024/01/08 06:57:16;;;;;;;24.83;14.85;;;;;;;;;;2062828;28;20042;-78
2024/01/08 06:58:37;;;;;;;21.35;15.73;;;;;;;;;;2058737;28;20042;-77
2024/01/08 06:59:58;;;;;;;25.33;16.58;;;;;;;;;;2069285;28;20029;-78
2024/01/08 07:01:19;;;;;;;21.88;13.40;;;;;;;;;;2061058;28;20108;-78
2024/01/08 07:02:40;;;;;;;19.48;13.32;;;;;;;;;;2065247;28;20088;-78
2024/01/08 07:04:01;;;;;;;18.08;14.27;;;;;;;;;;2068819;28;20048;-77
2024/01/08 07:05:22;;;;;;;16.23;12.88;;;;;;;;;;2066430;28;20049;-77
2024/01/08 07:06:43;;;;;;;21.70;15.95;;;;;;;;;;2061290;28;20035;-77
2024/01/08 07:08:04;;;;;;;20.73;14.02;;;;;;;;;;2068921;28;20394;-76
2024/01/08 07:09:25;;;;;;;18.15;13.90;;;;;;;;;;2062798;28;20038;-77
2024/01/08 07:10:47;;;;;;;18.23;14.45;;;;;;;;;;2070666;28;20026;-78
2024/01/08 07:12:08;;;;;;;21.92;15.10;;;;;;;;;;2067295;28;20030;-78
2024/01/08 07:13:29;;;;;;;21.77;13.38;;;;;;;;;;2069309;28;20026;-77
2024/01/08 07:14:52;;;;;;;18.50;13.75;;;;;;;;;;2069716;28;20101;-77
2024/01/08 07:16:13;;;;;;;19.88;15.10;;;;;;;;;;2056509;28;20042;-77
2024/01/08 07:17:34;;;;;;;19.90;14.15;;;;;;;;;;2068363;28;20417;-77
2024/01/08 07:18:55;;;;;;;24.88;13.80;;;;;;;;;;2062268;28;20062;-77
2024/01/08 07:20:16;;;;;;;15.65;12.57;;;;;;;;;;2053098;28;20066;-77
2024/01/08 07:21:36;;;;;;;27.92;16.33;;;;;;;;;;2060780;28;20478;-77
2024/01/08 07:22:57;;;;;;;21.45;15.48;;;;;;;;;;2062380;28;20085;-77
2024/01/08 07:24:18;;;;;;;20.73;15.38;;;;;;;;;;2054596;28;20042;-76
2024/01/08 07:25:41;;;;;;;22.58;15.10;;;;;;;;;;2063437;28;20030;-76
2024/01/08 07:27:02;;;;;;;17.75;13.93;;;;;;;;;;2062745;28;20042;-77
2024/01/08 07:28:23;;;;;;;17.38;13.73;;;;;;;;;;2065550;28;20026;-77
2024/01/08 07:29:44;;;;;;;16.98;14.10;;;;;;;;;;2069752;28;20375;-77
2024/01/08 07:31:05;;;;;;;19.27;14.50;;;;;;;;;;2067697;28;20033;-76
2024/01/08 07:32:26;;;;;;;19.90;13.95;;;;;;;;;;2072627;28;20022;-77
2024/01/08 07:33:47;;;;;;;18.02;14.18;;;;;;;;;;2064756;28;20030;-76
2024/01/08 07:35:08;;;;;;;20.20;14.57;;;;;;;;;;2070338;28;20037;-76
2024/01/08 07:36:29;;;;;;;20.20;13.90;;;;;;;;;;2073194;28;20076;-77
2024/01/08 07:37:55;;;;;;;18.92;14.80;;;;;;;;;;2065061;28;20483;-77
2024/01/08 07:39:15;;;;;;;21.00;15.10;;;;;;;;;;2063820;28;20042;-77
2024/01/08 07:40:36;;;;;;;19.25;14.93;;;;;;;;;;2057518;28;20035;-76
2024/01/08 07:41:57;;;;;;;21.80;14.88;;;;;;;;;;2066604;28;20536;-77
2024/01/08 07:43:18;;;;;;;21.15;14.48;;;;;;;;;;2063126;28;20034;-78
2024/01/08 07:44:39;;;;;;;21.27;15.07;;;;;;;;;;2063844;28;20018;-76
2024/01/08 07:46:00;;;;;;;21.00;16.77;;;;;;;;;;2061053;28;20033;-76
2024/01/08 07:47:21;;;;;;;19.95;14.35;;;;;;;;;;2060273;28;20494;-76
2024/01/08 07:48:42;;;;;;;21.92;14.88;;;;;;;;;;2063283;28;20037;-77
2024/01/08 07:50:03;;;;;;;20.10;15.25;;;;;;;;;;2069952;28;20049;-77
2024/01/08 07:51:24;;;;;;;19.25;13.98;;;;;;;;;;2064455;28;20109;-76